createdAt,value
2022-11-12T00:00:06.265Z,7.90
2022-11-12T00:02:32.852Z,7.90
2022-11-12T00:04:59.478Z,7.80
2022-11-12T00:07:26.159Z,7.70
2022-11-12T00:09:52.777Z,7.70
2022-11-12T00:12:19.407Z,7.70
2022-11-12T00:14:46.001Z,7.60
2022-11-12T00:17:12.592Z,7.60
2022-11-12T00:19:39.244Z,7.60
2022-11-12T00:22:05.842Z,7.60
2022-11-12T00:24:32.462Z,7.70
2022-11-12T00:26:59.139Z,7.70
2022-11-12T00:29:25.761Z,7.60
2022-11-12T00:31:52.374Z,7.60
2022-11-12T00:34:18.990Z,7.50
2022-11-12T00:36:45.603Z,7.50
2022-11-12T00:39:12.261Z,7.40
2022-11-12T00:41:38.886Z,7.30
2022-11-12T00:44:05.540Z,7.30
2022-11-12T00:46:32.138Z,7.40
2022-11-12T00:48:58.779Z,7.20
2022-11-12T00:51:25.467Z,7.20
2022-11-12T00:53:52.079Z,7.20
2022-11-12T00:56:18.686Z,7.20
2022-11-12T00:58:45.363Z,7.10
2022-11-12T01:01:12.610Z,7.10
2022-11-12T01:03:39.687Z,7.10
2022-11-12T01:06:10.770Z,7.10
2022-11-12T01:08:37.433Z,7.10
2022-11-12T01:11:11.264Z,7.00
2022-11-12T01:13:43.858Z,7.10
2022-11-12T01:16:12.154Z,7.10
2022-11-12T01:18:38.862Z,7.10
2022-11-12T01:21:05.928Z,7.30
2022-11-12T01:23:33.285Z,7.30
2022-11-12T01:26:03.495Z,7.40
2022-11-12T01:28:30.092Z,7.50
2022-11-12T01:30:56.790Z,7.50
2022-11-12T01:33:23.441Z,7.60
2022-11-12T01:35:50.047Z,7.60
2022-11-12T01:38:16.672Z,7.70
2022-11-12T01:40:43.415Z,7.80
2022-11-12T01:43:13.702Z,7.60
2022-11-12T01:45:40.411Z,7.60
2022-11-12T01:48:08.053Z,7.50
2022-11-12T01:50:34.702Z,7.60
2022-11-12T01:53:02.117Z,7.50
2022-11-12T01:55:29.696Z,7.40
2022-11-12T01:58:06.773Z,7.40
2022-11-12T02:00:33.426Z,7.90
2022-11-12T02:03:00.777Z,7.40
2022-11-12T02:05:27.434Z,7.40
2022-11-12T02:07:54.102Z,7.40
2022-11-12T02:10:20.859Z,7.30
2022-11-12T02:13:06.273Z,7.20
2022-11-12T02:15:32.901Z,7.10
2022-11-12T02:17:59.644Z,7.10
2022-11-12T02:20:26.298Z,7.10
2022-11-12T02:22:52.923Z,7.10
2022-11-12T02:25:20.167Z,7.00
2022-11-12T02:27:46.818Z,7.00
2022-11-12T02:30:13.431Z,7.00
2022-11-12T02:32:40.102Z,6.90
2022-11-12T02:35:07.055Z,7.00
2022-11-12T02:37:33.661Z,7.00
2022-11-12T02:40:00.480Z,6.90
2022-11-12T02:42:27.134Z,7.00
2022-11-12T02:44:53.735Z,7.10
2022-11-12T02:47:20.365Z,7.10
2022-11-12T02:49:46.961Z,7.10
2022-11-12T02:52:13.643Z,7.10
2022-11-12T02:54:40.473Z,7.30
2022-11-12T02:57:07.096Z,7.30
2022-11-12T02:59:33.703Z,7.30
2022-11-12T03:02:00.358Z,7.40
2022-11-12T03:04:26.978Z,7.50
2022-11-12T03:06:53.685Z,7.70
2022-11-12T03:09:20.359Z,7.70
2022-11-12T03:11:47.003Z,7.80
2022-11-12T03:14:13.876Z,7.90
2022-11-12T03:16:40.470Z,8.00
2022-11-12T03:19:07.080Z,8.10
2022-11-12T03:21:33.718Z,8.20
2022-11-12T03:24:01.049Z,8.20
2022-11-12T03:26:31.675Z,8.30
2022-11-12T03:29:01.184Z,8.30
2022-11-12T03:31:27.802Z,8.30
2022-11-12T03:33:54.414Z,8.20
2022-11-12T03:36:21.012Z,8.20
2022-11-12T03:38:47.609Z,8.20
2022-11-12T03:41:14.217Z,8.20
2022-11-12T03:43:40.852Z,8.30
2022-11-12T03:46:07.507Z,8.40
2022-11-12T03:48:34.115Z,8.50
2022-11-12T03:51:00.758Z,8.50
2022-11-12T03:53:27.413Z,8.60
2022-11-12T03:55:54.059Z,8.60
2022-11-12T03:58:20.702Z,8.50
2022-11-12T04:00:47.364Z,8.50
2022-11-12T04:03:14.073Z,8.50
2022-11-12T04:05:59.488Z,8.40
2022-11-12T04:08:38.224Z,8.30
2022-11-12T04:11:04.891Z,8.20
2022-11-12T04:13:31.556Z,8.10
2022-11-12T04:16:20.348Z,8.00
2022-11-12T04:19:05.908Z,7.90
2022-11-12T04:21:55.391Z,7.90
2022-11-12T04:24:44.896Z,7.70
2022-11-12T04:27:15.386Z,7.80
2022-11-12T04:30:01.249Z,7.80
2022-11-12T04:32:28.093Z,7.80
2022-11-12T04:34:54.923Z,7.70
2022-11-12T04:37:23.674Z,7.60
2022-11-12T04:39:50.692Z,7.50
2022-11-12T04:42:35.758Z,7.40
2022-11-12T04:45:04.075Z,7.30
2022-11-12T04:47:37.729Z,7.10
2022-11-12T04:50:05.605Z,7.00
2022-11-12T04:52:32.242Z,7.00
2022-11-12T04:54:58.914Z,6.90
2022-11-12T04:57:25.780Z,6.80
2022-11-12T04:59:52.419Z,6.70
2022-11-12T05:02:19.083Z,6.60
2022-11-12T05:04:45.747Z,6.50
2022-11-12T05:07:12.573Z,6.40
2022-11-12T05:09:39.451Z,6.40
2022-11-12T05:12:06.244Z,6.30
2022-11-12T05:14:32.927Z,6.30
2022-11-12T05:16:59.588Z,6.20
2022-11-12T05:19:26.194Z,6.20
2022-11-12T05:22:17.528Z,6.20
2022-11-12T05:24:53.974Z,6.10
2022-11-12T05:27:20.630Z,5.80
2022-11-12T05:29:47.216Z,6.20
2022-11-12T05:32:14.784Z,5.90
2022-11-12T05:34:41.436Z,5.90
2022-11-12T05:37:08.329Z,5.90
2022-11-12T05:39:34.925Z,5.80
2022-11-12T05:42:16.858Z,5.80
2022-11-12T05:44:43.499Z,5.80
2022-11-12T05:47:10.140Z,5.70
2022-11-12T05:49:36.795Z,5.70
2022-11-12T05:52:03.458Z,5.60
2022-11-12T05:54:30.132Z,5.60
2022-11-12T05:56:56.739Z,5.50
2022-11-12T05:59:23.429Z,5.50
2022-11-12T06:01:50.081Z,5.50
2022-11-12T06:04:16.820Z,5.50
2022-11-12T06:06:43.608Z,5.50
2022-11-12T06:09:10.282Z,5.80
2022-11-12T06:11:37.045Z,5.50
2022-11-12T06:14:03.873Z,6.00
2022-11-12T06:16:30.520Z,5.60
2022-11-12T06:18:57.212Z,5.60
2022-11-12T06:21:23.871Z,5.70
2022-11-12T06:23:51.815Z,5.80
2022-11-12T06:26:18.800Z,6.00
2022-11-12T06:28:45.703Z,6.30
2022-11-12T06:31:12.450Z,6.70
2022-11-12T06:33:39.077Z,7.00
2022-11-12T06:36:06.098Z,7.40
2022-11-12T06:38:33.458Z,7.50
2022-11-12T06:41:00.138Z,7.70
2022-11-12T06:43:27.540Z,7.80
2022-11-12T06:45:54.187Z,7.70
2022-11-12T06:48:20.820Z,7.80
2022-11-12T06:50:47.431Z,7.90
2022-11-12T06:53:14.108Z,8.00
2022-11-12T06:55:40.781Z,8.10
2022-11-12T06:58:07.463Z,8.30
2022-11-12T07:00:34.123Z,8.50
2022-11-12T07:03:02.461Z,8.70
2022-11-12T07:05:29.119Z,8.90
2022-11-12T07:07:55.802Z,9.20
2022-11-12T07:10:22.488Z,9.30
2022-11-12T07:12:53.179Z,9.40
2022-11-12T07:15:20.282Z,9.40
2022-11-12T07:17:46.963Z,9.60
2022-11-12T07:20:13.662Z,9.70
2022-11-12T07:22:40.281Z,9.80
2022-11-12T07:25:07.100Z,9.90
2022-11-12T07:27:33.718Z,10.10
2022-11-12T07:30:00.312Z,10.40
2022-11-12T07:32:26.945Z,10.70
2022-11-12T07:34:53.678Z,10.40
2022-11-12T07:37:20.290Z,11.40
2022-11-12T07:39:46.914Z,11.70
2022-11-12T07:42:13.658Z,12.10
2022-11-12T07:44:40.269Z,12.40
2022-11-12T07:47:06.873Z,12.70
2022-11-12T07:49:33.517Z,13.00
2022-11-12T07:52:00.221Z,13.30
2022-11-12T07:54:26.891Z,13.70
2022-11-12T07:56:55.563Z,14.00
2022-11-12T07:59:22.270Z,14.40
2022-11-12T08:01:48.995Z,14.60
2022-11-12T08:04:16.072Z,14.90
2022-11-12T08:06:43.030Z,15.10
2022-11-12T08:09:10.902Z,15.30
2022-11-12T08:11:37.593Z,15.50
2022-11-12T08:14:04.390Z,15.60
2022-11-12T08:16:31.030Z,15.70
2022-11-12T08:18:57.730Z,15.80
2022-11-12T08:21:24.409Z,15.90
2022-11-12T08:23:51.092Z,16.00
2022-11-12T08:26:18.257Z,16.10
2022-11-12T08:28:45.619Z,16.20
2022-11-12T08:31:13.384Z,16.20
2022-11-12T08:33:40.595Z,16.10
2022-11-12T08:36:10.308Z,16.00
2022-11-12T08:38:37.008Z,15.80
2022-11-12T08:41:04.158Z,15.70
2022-11-12T08:43:31.010Z,15.60
2022-11-12T08:45:58.213Z,15.50
2022-11-12T08:48:25.350Z,15.40
2022-11-12T08:50:53.860Z,15.30
2022-11-12T08:53:20.898Z,15.20
2022-11-12T08:55:47.851Z,15.20
2022-11-12T08:58:14.604Z,15.20
2022-11-12T09:00:41.813Z,15.40
2022-11-12T09:03:09.014Z,15.50
2022-11-12T09:05:35.749Z,15.50
2022-11-12T09:08:06.505Z,15.60
2022-11-12T09:10:33.169Z,15.70
2022-11-12T09:13:02.118Z,15.80
2022-11-12T09:15:39.251Z,16.00
2022-11-12T09:18:07.281Z,16.10
2022-11-12T09:20:33.988Z,16.20
2022-11-12T09:23:14.543Z,16.20
2022-11-12T09:25:41.390Z,16.20
2022-11-12T09:28:08.739Z,16.30
2022-11-12T09:30:36.009Z,16.30
2022-11-12T09:33:23.227Z,16.40
2022-11-12T09:36:05.394Z,16.40
2022-11-12T09:38:32.102Z,16.40
2022-11-12T09:41:05.833Z,16.50
2022-11-12T09:43:39.957Z,16.70
2022-11-12T09:46:28.830Z,16.80
2022-11-12T09:48:58.198Z,17.00
2022-11-12T09:51:28.811Z,17.10
2022-11-12T09:53:56.418Z,17.30
2022-11-12T09:56:23.164Z,17.40
2022-11-12T09:58:49.815Z,17.40
2022-11-12T10:01:19.545Z,17.40
2022-11-12T10:03:52.630Z,17.50
2022-11-12T10:06:22.789Z,17.50
2022-11-12T10:09:05.488Z,17.50
2022-11-12T10:11:32.091Z,17.60
2022-11-12T10:14:14.149Z,17.70
2022-11-12T10:16:53.216Z,17.70
2022-11-12T10:19:25.774Z,17.80
2022-11-12T10:22:02.997Z,17.90
2022-11-12T10:24:31.699Z,17.90
2022-11-12T10:26:58.678Z,18.00
2022-11-12T10:29:33.113Z,18.10
2022-11-12T10:32:03.550Z,18.00
2022-11-12T10:34:34.191Z,18.00
2022-11-12T10:37:02.053Z,17.90
2022-11-12T10:39:36.658Z,18.00
2022-11-12T10:42:04.373Z,18.00
2022-11-12T10:44:31.175Z,17.90
2022-11-12T10:47:18.474Z,18.00
2022-11-12T10:50:01.360Z,18.00
2022-11-12T10:52:28.063Z,18.00
2022-11-12T10:55:04.049Z,18.00
2022-11-12T10:57:30.673Z,18.10
2022-11-12T11:00:12.504Z,18.20
2022-11-12T11:02:52.375Z,18.20
2022-11-12T11:05:29.508Z,18.10
2022-11-12T11:07:56.272Z,18.20
2022-11-12T11:10:24.629Z,18.20
2022-11-12T11:12:51.605Z,18.30
2022-11-12T11:15:22.423Z,18.40
2022-11-12T11:17:49.152Z,18.40
2022-11-12T11:20:25.903Z,18.30
2022-11-12T11:23:16.014Z,18.30
2022-11-12T11:25:42.891Z,18.40
2022-11-12T11:28:12.386Z,18.40
2022-11-12T11:30:40.359Z,18.40
2022-11-12T11:33:22.250Z,18.40
2022-11-12T11:36:07.635Z,18.40
2022-11-12T11:38:40.418Z,18.40
2022-11-12T11:41:10.201Z,18.30
2022-11-12T11:43:36.903Z,18.20
2022-11-12T11:46:12.526Z,18.20
2022-11-12T11:48:42.231Z,18.00
2022-11-12T11:51:26.104Z,17.90
2022-11-12T11:53:57.235Z,17.80
2022-11-12T11:56:28.569Z,17.70
2022-11-12T11:59:21.525Z,17.60
2022-11-12T12:02:02.105Z,17.70
2022-11-12T12:04:28.981Z,17.50
2022-11-12T12:07:14.348Z,17.50
2022-11-12T12:09:43.935Z,17.30
2022-11-12T12:12:21.721Z,17.20
2022-11-12T12:14:57.539Z,16.90
2022-11-12T12:17:29.232Z,16.60
2022-11-12T12:19:58.316Z,16.40
2022-11-12T12:22:38.297Z,16.20
2022-11-12T12:25:09.757Z,16.00
2022-11-12T12:27:46.652Z,15.90
2022-11-12T12:30:23.106Z,15.80
2022-11-12T12:32:51.711Z,15.70
2022-11-12T12:35:57.124Z,15.30
2022-11-12T12:38:35.813Z,15.60
2022-11-12T12:41:09.644Z,15.50
2022-11-12T12:43:39.454Z,15.50
2022-11-12T12:46:06.153Z,15.40
2022-11-12T12:48:33.283Z,15.30
2022-11-12T12:50:59.990Z,15.30
2022-11-12T12:53:29.922Z,15.20
2022-11-12T12:56:00.439Z,15.20
2022-11-12T12:58:28.774Z,15.10
2022-11-12T13:01:02.317Z,15.00
2022-11-12T13:03:44.212Z,14.90
2022-11-12T13:06:23.280Z,14.80
2022-11-12T13:08:54.839Z,14.70
2022-11-12T13:12:00.625Z,14.60
2022-11-12T13:14:36.490Z,14.60
2022-11-12T13:17:03.133Z,14.60
2022-11-12T13:19:34.065Z,14.50
2022-11-12T13:22:19.126Z,14.50
2022-11-12T13:25:04.752Z,14.40
2022-11-12T13:27:40.475Z,14.40
2022-11-12T13:30:07.669Z,14.40
2022-11-12T13:32:39.702Z,14.40
2022-11-12T13:35:20.537Z,14.40
2022-11-12T13:37:51.690Z,14.30
2022-11-12T13:40:30.494Z,14.40
2022-11-12T13:42:57.883Z,14.30
2022-11-12T13:45:25.319Z,14.30
2022-11-12T13:47:52.099Z,14.30
2022-11-12T13:50:19.763Z,14.20
2022-11-12T13:52:46.847Z,14.20
2022-11-12T13:55:14.493Z,14.20
2022-11-12T13:57:41.168Z,14.10
2022-11-12T14:00:22.407Z,14.10
2022-11-12T14:02:50.526Z,14.20
2022-11-12T14:05:18.616Z,14.10
2022-11-12T14:07:51.107Z,14.10
2022-11-12T14:10:33.514Z,14.00
2022-11-12T14:13:12.453Z,14.00
2022-11-12T14:15:42.259Z,13.90
2022-11-12T14:18:13.378Z,13.90
2022-11-12T14:20:41.440Z,13.90
2022-11-12T14:23:15.194Z,13.80
2022-11-12T14:25:47.445Z,13.90
2022-11-12T14:28:30.968Z,13.80
2022-11-12T14:30:58.247Z,13.70
2022-11-12T14:33:26.780Z,13.60
2022-11-12T14:35:53.774Z,13.50
2022-11-12T14:38:22.608Z,13.50
2022-11-12T14:40:50.529Z,13.50
2022-11-12T14:43:21.321Z,13.50
2022-11-12T14:45:51.793Z,13.40
2022-11-12T14:48:18.595Z,13.50
2022-11-12T14:50:50.605Z,13.40
2022-11-12T14:53:28.024Z,13.40
2022-11-12T14:55:55.540Z,13.40
2022-11-12T14:58:22.536Z,13.30
2022-11-12T15:00:50.336Z,13.20
2022-11-12T15:03:20.928Z,13.10
2022-11-12T15:05:59.837Z,13.10
2022-11-12T15:08:34.066Z,13.00
2022-11-12T15:11:21.776Z,12.90
2022-11-12T15:13:49.139Z,12.80
2022-11-12T15:16:19.913Z,11.80
2022-11-12T15:18:53.975Z,12.50
2022-11-12T15:21:27.299Z,12.40
2022-11-12T15:24:00.629Z,12.30
2022-11-12T15:26:37.466Z,12.20
2022-11-12T15:29:10.140Z,12.00
2022-11-12T15:31:50.274Z,11.90
2022-11-12T15:34:25.745Z,11.70
2022-11-12T15:36:52.352Z,11.50
2022-11-12T15:39:19.113Z,11.40
2022-11-12T15:41:45.906Z,11.30
2022-11-12T15:44:12.602Z,11.10
2022-11-12T15:46:39.359Z,11.00
2022-11-12T15:49:12.742Z,10.90
2022-11-12T15:51:39.433Z,10.80
2022-11-12T15:54:06.169Z,10.70
2022-11-12T15:56:32.866Z,10.60
2022-11-12T15:58:59.527Z,10.50
2022-11-12T16:01:26.367Z,10.30
2022-11-12T16:03:53.035Z,10.20
2022-11-12T16:06:19.794Z,10.20
2022-11-12T16:08:46.659Z,10.10
2022-11-12T16:11:33.322Z,10.00
2022-11-12T16:14:00.039Z,9.90
2022-11-12T16:16:30.060Z,9.90
2022-11-12T16:18:56.779Z,9.90
2022-11-12T16:21:23.538Z,9.80
2022-11-12T16:23:51.439Z,9.70
2022-11-12T16:26:23.218Z,9.60
2022-11-12T16:28:49.989Z,9.60
2022-11-12T16:31:16.771Z,9.50
2022-11-12T16:33:43.479Z,9.40
2022-11-12T16:36:14.110Z,9.30
2022-11-12T16:38:40.884Z,9.20
2022-11-12T16:41:12.004Z,9.10
2022-11-12T16:43:38.917Z,9.10
2022-11-12T16:46:28.664Z,9.00
2022-11-12T16:48:55.311Z,9.00
2022-11-12T16:51:22.398Z,8.90
2022-11-12T16:53:49.104Z,8.90
2022-11-12T16:56:19.777Z,8.80
2022-11-12T16:58:47.287Z,8.80
2022-11-12T17:01:26.694Z,8.70
2022-11-12T17:03:53.754Z,8.60
2022-11-12T17:06:20.477Z,8.60
2022-11-12T17:08:48.148Z,8.60
2022-11-12T17:11:15.405Z,8.60
2022-11-12T17:13:42.458Z,8.60
2022-11-12T17:16:09.111Z,8.60
2022-11-12T17:18:35.767Z,8.60
2022-11-12T17:21:09.575Z,8.60
2022-11-12T17:23:36.303Z,8.60
2022-11-12T17:26:03.561Z,8.50
2022-11-12T17:28:30.320Z,8.40
2022-11-12T17:31:06.723Z,8.40
2022-11-12T17:33:36.939Z,8.30
2022-11-12T17:36:05.214Z,8.30
2022-11-12T17:38:31.880Z,8.20
2022-11-12T17:40:58.553Z,8.20
2022-11-12T17:43:25.881Z,8.20
2022-11-12T17:45:53.058Z,8.00
2022-11-12T17:48:19.723Z,8.10
2022-11-12T17:50:46.818Z,8.00
2022-11-12T17:53:13.563Z,7.90
2022-11-12T17:55:40.411Z,7.80
2022-11-12T17:58:07.076Z,7.80
2022-11-12T18:00:34.017Z,7.80
2022-11-12T18:03:00.659Z,7.80
2022-11-12T18:05:27.248Z,7.70
2022-11-12T18:07:53.995Z,7.70
2022-11-12T18:10:20.622Z,7.70
2022-11-12T18:12:47.251Z,7.60
2022-11-12T18:15:14.078Z,7.50
2022-11-12T18:17:40.727Z,7.50
2022-11-12T18:20:07.763Z,7.50
2022-11-12T18:22:39.515Z,7.40
2022-11-12T18:25:10.330Z,7.40
2022-11-12T18:27:37.041Z,7.30
2022-11-12T18:30:03.874Z,7.30
2022-11-12T18:32:30.590Z,7.30
2022-11-12T18:34:57.195Z,7.30
2022-11-12T18:37:23.856Z,7.30
2022-11-12T18:39:50.450Z,7.40
2022-11-12T18:42:17.052Z,7.40
2022-11-12T18:44:43.667Z,7.30
2022-11-12T18:47:10.768Z,7.30
2022-11-12T18:49:37.395Z,7.30
2022-11-12T18:52:04.082Z,7.20
2022-11-12T18:54:30.757Z,7.20
2022-11-12T18:56:57.675Z,7.20
2022-11-12T18:59:34.436Z,7.10
2022-11-12T19:02:01.093Z,7.20
2022-11-12T19:04:27.867Z,7.10
2022-11-12T19:06:57.104Z,7.10
2022-11-12T19:09:23.860Z,7.10
2022-11-12T19:11:50.603Z,7.10
2022-11-12T19:14:19.818Z,7.10
2022-11-12T19:16:46.647Z,7.00
2022-11-12T19:19:15.049Z,7.00
2022-11-12T19:21:44.251Z,7.00
2022-11-12T19:24:10.877Z,7.00
2022-11-12T19:26:37.516Z,7.00
2022-11-12T19:29:04.292Z,7.00
2022-11-12T19:31:31.027Z,7.00
2022-11-12T19:33:57.865Z,6.90
2022-11-12T19:36:25.032Z,6.90
2022-11-12T19:38:58.162Z,6.80
2022-11-12T19:41:24.977Z,6.70
2022-11-12T19:43:51.974Z,6.70
2022-11-12T19:46:18.762Z,6.60
2022-11-12T19:48:45.561Z,6.60
2022-11-12T19:51:12.301Z,6.60
2022-11-12T19:53:44.470Z,6.50
2022-11-12T19:56:13.506Z,6.60
2022-11-12T19:58:40.474Z,6.60
2022-11-12T20:01:10.664Z,6.50
2022-11-12T20:03:37.586Z,6.60
2022-11-12T20:06:05.318Z,6.60
2022-11-12T20:08:32.029Z,6.50
2022-11-12T20:10:59.341Z,6.50
2022-11-12T20:13:29.070Z,6.60
2022-11-12T20:15:55.734Z,6.60
2022-11-12T20:18:22.461Z,6.40
2022-11-12T20:20:57.449Z,6.40
2022-11-12T20:23:24.282Z,6.40
2022-11-12T20:25:53.755Z,6.40
2022-11-12T20:28:20.457Z,6.40
2022-11-12T20:30:47.094Z,6.40
2022-11-12T20:33:14.041Z,6.40
2022-11-12T20:35:43.317Z,6.50
2022-11-12T20:38:12.656Z,6.40
2022-11-12T20:40:39.393Z,6.40
2022-11-12T20:43:06.077Z,6.50
2022-11-12T20:45:32.805Z,6.40
2022-11-12T20:47:59.425Z,6.40
2022-11-12T20:50:26.334Z,6.30
2022-11-12T20:52:54.118Z,6.40
2022-11-12T20:55:20.796Z,6.40
2022-11-12T20:57:47.534Z,6.40
2022-11-12T21:00:17.763Z,6.40
2022-11-12T21:02:46.915Z,6.30
2022-11-12T21:05:13.651Z,6.30
2022-11-12T21:07:40.884Z,6.20
2022-11-12T21:10:07.963Z,6.20
2022-11-12T21:12:35.123Z,6.20
2022-11-12T21:15:05.089Z,6.10
2022-11-12T21:17:31.808Z,6.10
2022-11-12T21:19:59.686Z,6.00
2022-11-12T21:22:26.406Z,6.00
2022-11-12T21:24:53.167Z,6.00
2022-11-12T21:27:19.806Z,6.00
2022-11-12T21:29:46.517Z,6.00
2022-11-12T21:32:13.220Z,6.00
2022-11-12T21:34:40.032Z,6.00
2022-11-12T21:37:06.661Z,6.00
2022-11-12T21:39:33.293Z,6.00
2022-11-12T21:41:59.993Z,6.00
2022-11-12T21:44:26.677Z,6.00
2022-11-12T21:46:53.690Z,5.90
2022-11-12T21:49:20.628Z,6.00
2022-11-12T21:51:47.663Z,5.90
2022-11-12T21:54:15.021Z,5.90
2022-11-12T21:56:42.078Z,5.90
2022-11-12T21:59:08.741Z,6.00
2022-11-12T22:01:35.496Z,5.80
2022-11-12T22:04:04.674Z,5.80
2022-11-12T22:06:31.288Z,5.90
2022-11-12T22:08:58.151Z,5.90
2022-11-12T22:11:25.197Z,5.80
2022-11-12T22:13:51.865Z,5.90
2022-11-12T22:16:22.285Z,6.40
2022-11-12T22:18:49.640Z,5.90
2022-11-12T22:21:17.125Z,5.90
2022-11-12T22:23:43.899Z,6.00
2022-11-12T22:26:11.238Z,6.00
2022-11-12T22:28:37.894Z,6.00
2022-11-12T22:31:05.695Z,6.00
2022-11-12T22:33:32.419Z,6.00
2022-11-12T22:36:02.670Z,6.00
2022-11-12T22:38:35.410Z,5.90
2022-11-12T22:41:02.842Z,5.80
2022-11-12T22:43:29.496Z,5.90
2022-11-12T22:45:56.250Z,5.80
2022-11-12T22:48:22.916Z,5.70
2022-11-12T22:50:49.596Z,5.70
2022-11-12T22:53:16.220Z,5.70
2022-11-12T22:55:42.842Z,5.70
2022-11-12T22:58:09.465Z,5.70
2022-11-12T23:00:36.084Z,5.70
2022-11-12T23:03:02.703Z,5.70
2022-11-12T23:05:29.359Z,5.70
2022-11-12T23:07:56.025Z,5.60
2022-11-12T23:10:22.626Z,5.50
2022-11-12T23:12:49.242Z,5.50
2022-11-12T23:15:15.939Z,5.50
2022-11-12T23:17:42.562Z,5.40
2022-11-12T23:20:09.560Z,5.40
2022-11-12T23:22:36.202Z,5.30
2022-11-12T23:25:02.833Z,5.30
2022-11-12T23:27:29.507Z,5.30
2022-11-12T23:29:56.128Z,5.40
2022-11-12T23:32:22.847Z,5.40
2022-11-12T23:34:49.466Z,5.40
2022-11-12T23:37:16.114Z,5.30
2022-11-12T23:39:42.735Z,5.30
2022-11-12T23:42:09.353Z,5.30
2022-11-12T23:44:36.011Z,5.20
2022-11-12T23:47:02.630Z,5.20
2022-11-12T23:49:29.367Z,5.20
2022-11-12T23:51:56.002Z,5.20
2022-11-12T23:54:22.613Z,5.20
2022-11-12T23:56:49.282Z,5.30
2022-11-12T23:59:15.872Z,5.20
